Terminal Aerodrome Forecast
Issued by NWS Cleveland, OH

Home | Current Version | Previous Version | Graphics & Text | Print | Product List | Glossary On
Versions: 1 2 3 4 5 6 7 8 9 10 11 12 13 14 15
000
FTUS41 KCLE 261712 AAA
TAFCAK
TAF AMD
KCAK 261712Z 2617/2712 24005KT 6SM HZ VCSH SCT025 BKN040
      TEMPO 2617/2620 30008KT 4SM -TSRA BKN025CB
     FM262000 33005KT P6SM BKN035 OVC100
     FM262200 35005KT P6SM SCT040 BKN150
     FM270800 36003KT 4SM BR BKN150=

USA.gov is the U.S. government's official web portal to all federal, state and local government web resources and services.